Dario Meira, Brazil
Current Conditions -  °F | °C
As of 11:00 PM on Monday 20 Oct 2014 (Local Time) from SBIL Reporting Station
Scattered Clouds Scattered Clouds  
Wind Chill: 79°   Ceiling: Unl
Heat Index: 82°   Visibility: 6mi
Dew Point: 72°   Wind: 12mph
Humidity: 78%   Direction: 30°NNE
Pressure: 29.91"   Gusts: NA
Location:  14.44°S, 39.91°W
Report Text: SBIL 210200Z 03010KT 9999 SCT015 SCT030 26/22 Q1013
Loading
Personal Weather Stations






























Interactive Weather Map
Tropical Storm Tracking
New forecast layout! Learn more

10-Day Weather Forecast

Advertisements
Track Severe Weather on mobile